KLVNKLSE

Guest
Details From KLVN - AIRLAKE
To KLSE - LA CROSSE MUNI
Flight Number -
Tags generated
Created
Modified
Stats Distance 96 nm / 178 km
Max Altitude 4,700 ft / 1,433 m
Waypoints 3
Social Downloads 1
Likes 0
Share VATSIM

Download

Looking for another format? Having issues loading an existing format? Contact us
Advertisement - Login to hide

Notes

Basic altitude profile: - Ascent Rate: 2500ft/min - Ascent Speed: 250kts - Cruise Altitude: 35000ft - Cruise Speed: 420kts - Descent Rate: 1500ft/min - Descent Speed: 250kts Options: - Use NATs: no - Use PACOTS: no - Use low airways: yes - Use high airways: no

Route

KLVN PEGGS KLSE

ID Type Via Altitude Latitude Longitude Leg Dist Tot Dist Heading (true) Name
O KLVN APT - 0 ft / 0 m 44.62786˚ -93.22810˚ - 0 nm - AIRLAKE
PEGGS FIX - 4,700 ft / 1,433 m 44.06731˚ -91.69994˚ 73 nm 73 nm 117° / 118° -
O KLSE APT - 0 ft / 0 m 43.87882˚ -91.25621˚ 22 nm 96 nm 120° / 121° LA CROSSE MUNI

Altitude Profile

Advertisement - Login to hide

KLVN

Details ICAO KLVN
Name AIRLAKE
Region United States
Timezone America/Chicago (UTC-6.0)
Stats Elevation 960 ft / 293 m (AMSL)
Location 44.627858° -93.228097°
Runways 1
Magnetic Variation 0.219° E

METAR

KLVN 142316Z AUTO 29007KT 10SM OVC016 M07/M08 A3002 RMK AO2

Decode

TAF

Not found

Departure Runways

ID Width Length Bearing (true) Bearing (mag) Surface Threshold Offset Overrun Length
12 75 ft / 23 m 4,091 ft / 1,247 m 117.50° 117.28° Asphalt 0 ft / 0 m 0 ft / 0 m
30 75 ft / 23 m 4,091 ft / 1,247 m 297.51° 297.29° Asphalt 391 ft / 119 m 0 ft / 0 m

KLSE

Details ICAO KLSE (LSE)
Name LA CROSSE MUNI
Region United States
Timezone America/Chicago (UTC-6.0)
Stats Elevation 653 ft / 199 m (AMSL)
Location 43.878815° -91.256206°
Runways 3
Magnetic Variation 1.304° W

METAR

KLSE 142253Z 19005KT 10SM BKN034 OVC080 M03/M10 A3002 RMK AO2 SLP187 T10331100

Decode

TAF

KLSE 141724Z 1418/1518 19007KT P6SM SCT035 FM142200 26006KT P6SM -SN OVC025 FM150900 30009KT P6SM BKN040

Decode

Destination Runways

ID Width Length Bearing (true) Bearing (mag) Surface Threshold Offset Overrun Length
03 150 ft / 46 m 5,204 ft / 1,586 m 36.00° 37.30° Asphalt 0 ft / 0 m 0 ft / 0 m
13 150 ft / 46 m 6,056 ft / 1,846 m 134.61° 135.91° Asphalt 0 ft / 0 m 0 ft / 0 m
18 150 ft / 46 m 8,750 ft / 2,667 m 179.43° 180.73° Concrete 0 ft / 0 m 0 ft / 0 m
21 150 ft / 46 m 5,204 ft / 1,586 m 216.01° 217.31° Asphalt 0 ft / 0 m 0 ft / 0 m
31 150 ft / 46 m 6,056 ft / 1,846 m 314.62° 315.92° Asphalt 732 ft / 223 m 0 ft / 0 m
36 150 ft / 46 m 8,750 ft / 2,667 m 359.43° 0.73° Concrete 1,132 ft / 345 m 0 ft / 0 m

Approach Navaids

Runway Type Ident Frequency Range Bearing (true) Bearing (mag) Slope Elevation
18 Localiser ILSE 111.10 MHz 18 nm / 33 km 179.45° 180.75° - 647 ft / 197 m (AMSL)
18 Glidescope ILSE 111.10 MHz 10 nm / 19 km 179.45° 180.75° 3.00° 652 ft / 199 m (AMSL)